Un Akdeniz — TCTD2 — position and weather

sailwx.info

Track history (hours):
 
Tides and Currents Weather Stations Pressure Air Temp Water Temp Dewpoint Dewpoint Depression Visibility Wind Speed Wind Dir Waves Ship Positions

Un Akdeniz

Last reported at 2014-Oct-24 01:24 UTC. Time now 2014-Oct-25 21:13 UTC.
Position N 36°50' E 023°31'.

Length 192 m; draft 6.4 m.

Type: Ship (hazmat cat A). MMSI: 271002572.

Date/timePositionNaut miles runAvg speedWind from/ knotsBaromVisibWave heightAir tempDewpointWater temp
2014-Oct-24 01:24N 36°50' E 023°31'3919.0
2014-Oct-23 23:22N 37°23' E 023°59'1519.2
2014-Oct-23 22:33N 37°36' E 024°09'2218.7
2014-Oct-23 21:24N 37°51' E 024°28'26516.7
2014-Oct-23 05:33N 40°48' E 028°44'1919.2
2014-Oct-23 04:33N 40°50' E 029°09'6 5.7
2014-Oct-23 03:33N 40°51' E 029°16'0 0.0
2014-Oct-23 02:31N 40°51' E 029°16'0 0.0
2014-Oct-23 01:33N 40°51' E 029°16'0 0.0
2014-Oct-23 00:32N 40°51' E 029°16'0 0.0
2014-Oct-22 23:33N 40°51' E 029°16'0 0.0
2014-Oct-22 22:32N 40°51' E 029°16'0 0.0
2014-Oct-22 21:33N 40°51' E 029°16'0 0.0
2014-Oct-22 20:33N 40°51' E 029°16'0 0.0
2014-Oct-22 19:33N 40°51' E 029°16'0 0.0
2014-Oct-22 18:32N 40°51' E 029°16'0 0.0
2014-Oct-22 17:33N 40°51' E 029°16'0 0.0
2014-Oct-22 16:33N 40°51' E 029°16'0 0.0
2014-Oct-22 15:33N 40°51' E 029°16'0 0.0
2014-Oct-22 14:33N 40°51' E 029°16'0 0.0
2014-Oct-22 13:33N 40°51' E 029°16'4 3.9
2014-Oct-22 12:33N 40°50' E 029°11'1818.4
2014-Oct-22 11:33N 40°46' E 028°48'23616.4
2014-Oct-21 21:11N 38°16' E 024°51'2019.9
2014-Oct-21 20:12N 37°59' E 024°39'1319.6
2014-Oct-21 19:32N 37°47' E 024°33'1818.4
2014-Oct-21 18:33N 37°30' E 024°23'1918.9
2014-Oct-21 17:33N 37°15' E 024°09'1919.3
2014-Oct-21 16:33N 37°01' E 023°53'1918.8
2014-Oct-21 15:33N 36°46' E 023°39'1919.2
2014-Oct-21 14:33N 36°32' E 023°23'1817.6
2014-Oct-21 13:33N 36°24' E 023°03'5818.2
2014-Oct-21 10:24N 36°36' E 021°53'  
2014-Oct-17 17:33N 36°31' E 023°17'2019.5
2014-Oct-17 16:33N 36°48' E 023°30'2019.6
2014-Oct-17 15:33N 37°04' E 023°43'2019.9
2014-Oct-17 14:32N 37°22' E 023°55'4419.1
2014-Oct-17 12:16N 37°54' E 024°32'  
2014-Oct-15 06:27N 40°31' E 027°03'1718.7
2014-Oct-15 05:33N 40°25' E 026°43'2014.0
2014-Oct-15 04:10N 40°12' E 026°24'1413.7
2014-Oct-15 03:10N 40°01' E 026°13'912.6
2014-Oct-15 02:27N 39°58' E 026°01'1618.1
2014-Oct-15 01:33N 39°45' E 025°49'1918.8
2014-Oct-15 00:33N 39°28' E 025°38'11118.6
2014-Oct-14 18:33N 37°49' E 024°34'1818.2
2014-Oct-14 17:33N 37°32' E 024°25'1918.5
2014-Oct-14 16:33N 37°18' E 024°10'1919.3
2014-Oct-14 15:33N 37°02' E 023°55'2018.6
2014-Oct-14 14:28N 36°46' E 023°40'3618.1
2014-Oct-14 12:27N 36°24' E 023°04'2719.3
2014-Oct-14 11:05N 36°22' E 022°31'  
Track history (hours):
 
Tides and Currents Weather Stations Pressure Air Temp Water Temp Dewpoint Dewpoint Depression Visibility Wind Speed Wind Dir Waves Ship Positions

Un Akdeniz

Last reported at 2014-Oct-24 01:24 UTC. Time now 2014-Oct-25 21:13 UTC.
Position N 36°50' E 023°31'.

Length 192 m; draft 6.4 m.

Type: Ship (hazmat cat A). MMSI: 271002572.

Date/timePositionNaut miles runAvg speedWind from/ knotsBaromVisibWave heightAir tempDewpointWater temp
2014-Oct-24 01:24N 36°50' E 023°31'3919.0
2014-Oct-23 23:22N 37°23' E 023°59'1519.2
2014-Oct-23 22:33N 37°36' E 024°09'2218.7
2014-Oct-23 21:24N 37°51' E 024°28'26516.7
2014-Oct-23 05:33N 40°48' E 028°44'1919.2
2014-Oct-23 04:33N 40°50' E 029°09'6 5.7
2014-Oct-23 03:33N 40°51' E 029°16'0 0.0
2014-Oct-23 02:31N 40°51' E 029°16'0 0.0
2014-Oct-23 01:33N 40°51' E 029°16'0 0.0
2014-Oct-23 00:32N 40°51' E 029°16'0 0.0
2014-Oct-22 23:33N 40°51' E 029°16'0 0.0
2014-Oct-22 22:32N 40°51' E 029°16'0 0.0
2014-Oct-22 21:33N 40°51' E 029°16'0 0.0
2014-Oct-22 20:33N 40°51' E 029°16'0 0.0
2014-Oct-22 19:33N 40°51' E 029°16'0 0.0
2014-Oct-22 18:32N 40°51' E 029°16'0 0.0
2014-Oct-22 17:33N 40°51' E 029°16'0 0.0
2014-Oct-22 16:33N 40°51' E 029°16'0 0.0
2014-Oct-22 15:33N 40°51' E 029°16'0 0.0
2014-Oct-22 14:33N 40°51' E 029°16'0 0.0
2014-Oct-22 13:33N 40°51' E 029°16'4 3.9
2014-Oct-22 12:33N 40°50' E 029°11'1818.4
2014-Oct-22 11:33N 40°46' E 028°48'23616.4
2014-Oct-21 21:11N 38°16' E 024°51'2019.9
2014-Oct-21 20:12N 37°59' E 024°39'1319.6
2014-Oct-21 19:32N 37°47' E 024°33'1818.4
2014-Oct-21 18:33N 37°30' E 024°23'1918.9
2014-Oct-21 17:33N 37°15' E 024°09'1919.3
2014-Oct-21 16:33N 37°01' E 023°53'1918.8
2014-Oct-21 15:33N 36°46' E 023°39'1919.2
2014-Oct-21 14:33N 36°32' E 023°23'1817.6
2014-Oct-21 13:33N 36°24' E 023°03'5818.2
2014-Oct-21 10:24N 36°36' E 021°53'  
2014-Oct-17 17:33N 36°31' E 023°17'2019.5
2014-Oct-17 16:33N 36°48' E 023°30'2019.6
2014-Oct-17 15:33N 37°04' E 023°43'2019.9
2014-Oct-17 14:32N 37°22' E 023°55'4419.1
2014-Oct-17 12:16N 37°54' E 024°32'  
2014-Oct-15 06:27N 40°31' E 027°03'1718.7
2014-Oct-15 05:33N 40°25' E 026°43'2014.0
2014-Oct-15 04:10N 40°12' E 026°24'1413.7
2014-Oct-15 03:10N 40°01' E 026°13'912.6
2014-Oct-15 02:27N 39°58' E 026°01'1618.1
2014-Oct-15 01:33N 39°45' E 025°49'1918.8
2014-Oct-15 00:33N 39°28' E 025°38'11118.6
2014-Oct-14 18:33N 37°49' E 024°34'1818.2
2014-Oct-14 17:33N 37°32' E 024°25'1918.5
2014-Oct-14 16:33N 37°18' E 024°10'1919.3
2014-Oct-14 15:33N 37°02' E 023°55'2018.6
2014-Oct-14 14:28N 36°46' E 023°40'3618.1
2014-Oct-14 12:27N 36°24' E 023°04'2719.3
2014-Oct-14 11:05N 36°22' E 022°31'  

Dump ship's entire track history